Time;durP1;ratioP1;P1;durP2;ratioP2;P2;SDS_P1;SDS_P2;PMS_P1;PMS_P2;Temp;Humidity;BMP_temperature;BMP_pressure;BME280_temperature;BME280_humidity;BME280_pressure;Samples;Min_cycle;Max_cycle;Signal;HPM_P1;HPM_P2
2022/03/12 00:00:00;;;;;;;15.38;10.85;;;;;;;;;;5062810;28;20550;-65
2022/03/12 00:02:30;;;;;;;13.63;9.95;;;;;;;;;;5062649;28;20444;-65
2022/03/12 00:04:57;;;;;;;13.35;10.52;;;;;;;;;;5061908;28;20231;-65
2022/03/12 00:07:24;;;;;;;19.98;11.10;;;;;;;;;;5062211;28;20228;-65
2022/03/12 00:09:52;;;;;;;15.55;10.32;;;;;;;;;;5062413;28;20197;-65
2022/03/12 00:12:19;;;;;;;14.10;9.90;;;;;;;;;;5062706;28;20216;-65
2022/03/12 00:14:48;;;;;;;18.00;10.82;;;;;;;;;;5062611;28;20335;-66
2022/03/12 00:17:15;;;;;;;15.05;9.48;;;;;;;;;;5062469;28;20528;-66
2022/03/12 00:19:43;;;;;;;13.60;10.23;;;;;;;;;;5062520;28;20197;-66
2022/03/12 00:22:10;;;;;;;16.42;10.40;;;;;;;;;;5062298;28;20197;-65
2022/03/12 00:24:38;;;;;;;14.40;10.10;;;;;;;;;;5062173;28;20275;-65
2022/03/12 00:27:07;;;;;;;11.65;9.57;;;;;;;;;;5062116;28;20548;-65
2022/03/12 00:29:35;;;;;;;14.05;9.77;;;;;;;;;;5062217;28;20264;-65
2022/03/12 00:32:03;;;;;;;18.00;10.32;;;;;;;;;;5062194;28;20364;-65
2022/03/12 00:34:30;;;;;;;15.55;10.00;;;;;;;;;;5062058;28;20268;-65
2022/03/12 00:36:57;;;;;;;14.77;9.90;;;;;;;;;;5062256;28;20201;-65
2022/03/12 00:39:23;;;;;;;14.68;9.73;;;;;;;;;;5062238;28;20201;-65
2022/03/12 00:41:50;;;;;;;17.25;10.38;;;;;;;;;;5061972;28;20197;-65
2022/03/12 00:44:17;;;;;;;15.00;9.68;;;;;;;;;;5061904;28;20197;-65
2022/03/12 00:46:43;;;;;;;14.25;9.82;;;;;;;;;;5061785;28;20201;-65
2022/03/12 00:49:10;;;;;;;20.08;10.05;;;;;;;;;;5062091;28;20643;-65
2022/03/12 00:51:38;;;;;;;12.85;9.50;;;;;;;;;;5061856;28;20201;-65
2022/03/12 00:54:06;;;;;;;12.75;8.52;;;;;;;;;;5062112;28;20221;-65
2022/03/12 00:56:32;;;;;;;12.80;9.60;;;;;;;;;;5061901;28;20550;-65
2022/03/12 00:58:59;;;;;;;14.38;10.10;;;;;;;;;;5061902;28;20414;-65
2022/03/12 01:01:26;;;;;;;13.65;9.93;;;;;;;;;;5061905;28;20263;-65
2022/03/12 01:03:52;;;;;;;13.23;9.90;;;;;;;;;;5061734;28;20200;-65
2022/03/12 01:06:19;;;;;;;13.20;10.02;;;;;;;;;;5061581;28;20217;-65
2022/03/12 01:08:45;;;;;;;15.88;10.02;;;;;;;;;;5062030;28;20197;-65
2022/03/12 01:11:13;;;;;;;12.07;9.45;;;;;;;;;;5061913;28;20203;-65
2022/03/12 01:13:40;;;;;;;17.77;10.20;;;;;;;;;;5061696;28;20267;-65
2022/03/12 01:16:06;;;;;;;11.70;9.55;;;;;;;;;;5064908;28;20201;-65
2022/03/12 01:18:36;;;;;;;14.23;9.90;;;;;;;;;;5065781;28;20197;-65
2022/03/12 01:21:07;;;;;;;14.90;9.40;;;;;;;;;;5066033;28;20197;-65
2022/03/12 01:23:33;;;;;;;15.07;10.23;;;;;;;;;;5065734;28;20193;-65
2022/03/12 01:25:59;;;;;;;13.57;9.10;;;;;;;;;;5065699;28;20197;-65
2022/03/12 01:28:27;;;;;;;12.02;9.23;;;;;;;;;;5065529;28;20197;-65
2022/03/12 01:30:54;;;;;;;17.85;9.35;;;;;;;;;;5065619;28;20263;-65
2022/03/12 01:33:20;;;;;;;12.98;8.73;;;;;;;;;;5065677;28;20228;-65
2022/03/12 01:35:47;;;;;;;12.43;9.52;;;;;;;;;;5065542;28;20500;-65
2022/03/12 01:38:14;;;;;;;11.15;8.93;;;;;;;;;;5065586;28;20216;-66
2022/03/12 01:40:40;;;;;;;12.82;8.90;;;;;;;;;;5065458;28;20197;-65
2022/03/12 01:43:06;;;;;;;11.68;8.57;;;;;;;;;;5065273;28;20197;-65
2022/03/12 01:45:36;;;;;;;10.45;8.05;;;;;;;;;;5065277;28;20200;-65
2022/03/12 01:48:03;;;;;;;13.50;8.90;;;;;;;;;;5065199;28;20201;-65
2022/03/12 01:50:33;;;;;;;13.18;8.63;;;;;;;;;;5065346;28;20278;-65
2022/03/12 01:53:00;;;;;;;11.95;9.00;;;;;;;;;;5065042;28;20255;-65
2022/03/12 01:55:29;;;;;;;14.73;8.75;;;;;;;;;;5065146;28;20197;-65
2022/03/12 01:57:55;;;;;;;11.10;7.93;;;;;;;;;;5064669;28;20212;-65
2022/03/12 02:00:23;;;;;;;10.90;8.68;;;;;;;;;;5064925;28;20197;-65
2022/03/12 02:02:53;;;;;;;13.00;8.02;;;;;;;;;;5065117;28;20193;-65
2022/03/12 02:05:20;;;;;;;11.77;7.60;;;;;;;;;;5065019;28;20254;-65
2022/03/12 02:07:46;;;;;;;14.05;8.85;;;;;;;;;;5064595;28;20205;-65
2022/03/12 02:10:19;;;;;;;13.18;7.63;;;;;;;;;;5064845;28;20243;-65
2022/03/12 02:12:45;;;;;;;16.30;8.27;;;;;;;;;;5064494;28;20213;-65
2022/03/12 02:15:11;;;;;;;9.93;7.32;;;;;;;;;;5065163;28;20395;-65
2022/03/12 02:17:38;;;;;;;12.13;8.38;;;;;;;;;;5064575;28;20219;-65
2022/03/12 02:20:06;;;;;;;10.98;7.90;;;;;;;;;;5064596;28;20201;-65
2022/03/12 02:22:33;;;;;;;13.07;7.60;;;;;;;;;;5064680;28;20197;-65
2022/03/12 02:25:00;;;;;;;13.68;8.00;;;;;;;;;;5064480;28;20204;-65
2022/03/12 02:27:27;;;;;;;10.48;7.60;;;;;;;;;;5063772;28;20205;-65
2022/03/12 02:29:54;;;;;;;11.43;8.80;;;;;;;;;;5064558;28;20225;-65
2022/03/12 02:32:20;;;;;;;11.73;7.93;;;;;;;;;;5064611;28;20197;-65
2022/03/12 02:34:47;;;;;;;11.13;7.63;;;;;;;;;;5064371;28;20448;-65
2022/03/12 02:37:17;;;;;;;10.93;8.32;;;;;;;;;;5064236;28;20197;-65
2022/03/12 02:39:43;;;;;;;8.85;7.60;;;;;;;;;;5064268;28;20243;-65
2022/03/12 02:42:11;;;;;;;8.68;7.72;;;;;;;;;;5064469;28;20267;-65
2022/03/12 02:44:37;;;;;;;10.77;7.90;;;;;;;;;;5064603;28;20200;-65
2022/03/12 02:47:14;;;;;;;9.45;8.00;;;;;;;;;;5063193;28;20208;-65
2022/03/12 02:49:42;;;;;;;8.45;7.57;;;;;;;;;;5064356;28;20425;-65
2022/03/12 02:52:08;;;;;;;11.52;7.68;;;;;;;;;;5064045;28;20235;-65
2022/03/12 02:54:35;;;;;;;11.93;7.90;;;;;;;;;;5063995;28;20271;-65
2022/03/12 02:57:02;;;;;;;10.07;7.53;;;;;;;;;;5063699;28;20533;-65
2022/03/12 02:59:30;;;;;;;10.18;8.23;;;;;;;;;;5063922;28;20203;-65
2022/03/12 03:02:00;;;;;;;16.10;8.88;;;;;;;;;;5063691;28;20204;-65
2022/03/12 03:04:26;;;;;;;15.70;8.50;;;;;;;;;;5064200;28;20264;-65
2022/03/12 03:06:52;;;;;;;11.25;8.80;;;;;;;;;;5063671;28;20221;-65
2022/03/12 03:09:19;;;;;;;10.35;8.57;;;;;;;;;;5063895;28;20203;-65
2022/03/12 03:11:45;;;;;;;16.65;9.23;;;;;;;;;;5063693;28;20427;-65
2022/03/12 03:14:12;;;;;;;12.43;8.98;;;;;;;;;;5063473;28;20209;-65
2022/03/12 03:16:39;;;;;;;9.55;8.45;;;;;;;;;;5063336;28;20225;-65
2022/03/12 03:19:06;;;;;;;11.23;8.90;;;;;;;;;;5063712;28;20203;-65
2022/03/12 03:21:32;;;;;;;10.45;7.90;;;;;;;;;;5063483;28;20196;-65
2022/03/12 03:24:00;;;;;;;10.60;8.30;;;;;;;;;;5063211;28;20201;-65
2022/03/12 03:26:49;;;;;;;10.93;8.07;;;;;;;;;;5063124;28;20197;-65
2022/03/12 03:29:16;;;;;;;13.00;7.97;;;;;;;;;;5063650;28;20543;-65
2022/03/12 03:31:44;;;;;;;12.23;8.90;;;;;;;;;;5063445;28;20197;-65
2022/03/12 03:34:11;;;;;;;12.20;8.10;;;;;;;;;;5063299;28;20220;-65
2022/03/12 03:36:37;;;;;;;11.52;7.93;;;;;;;;;;5063007;28;20193;-65
2022/03/12 03:39:03;;;;;;;11.55;7.75;;;;;;;;;;5062939;28;20207;-65
2022/03/12 03:41:30;;;;;;;11.85;8.65;;;;;;;;;;5062985;28;20497;-65
2022/03/12 03:43:56;;;;;;;9.27;8.23;;;;;;;;;;5063249;28;20534;-65
2022/03/12 03:46:23;;;;;;;11.95;7.70;;;;;;;;;;5063165;28;20551;-65
2022/03/12 03:48:51;;;;;;;11.60;8.77;;;;;;;;;;5062818;28;20441;-65
2022/03/12 03:51:18;;;;;;;8.93;8.10;;;;;;;;;;5062967;28;20204;-65
2022/03/12 03:53:44;;;;;;;11.40;8.48;;;;;;;;;;5062742;28;20448;-65
2022/03/12 03:56:10;;;;;;;14.20;8.48;;;;;;;;;;5062813;28;20438;-65
2022/03/12 03:58:37;;;;;;;11.25;8.68;;;;;;;;;;5062719;28;20243;-65
2022/03/12 04:01:04;;;;;;;15.55;10.40;;;;;;;;;;5062885;28;20220;-65
2022/03/12 04:03:32;;;;;;;15.55;11.48;;;;;;;;;;5062705;28;20232;-65
2022/03/12 04:06:01;;;;;;;14.75;10.50;;;;;;;;;;5062385;28;20221;-65
2022/03/12 04:08:28;;;;;;;16.48;11.18;;;;;;;;;;5062384;28;20371;-65
2022/03/12 04:10:54;;;;;;;17.08;10.88;;;;;;;;;;5062612;28;20204;-65
2022/03/12 04:13:21;;;;;;;16.92;10.77;;;;;;;;;;5062599;28;20258;-65
2022/03/12 04:15:48;;;;;;;13.63;10.20;;;;;;;;;;5062471;28;20288;-65
2022/03/12 04:18:15;;;;;;;12.85;9.65;;;;;;;;;;5062210;28;20197;-65
2022/03/12 04:20:43;;;;;;;15.65;10.23;;;;;;;;;;5062394;28;20197;-65
2022/03/12 04:23:16;;;;;;;11.60;10.20;;;;;;;;;;5062294;28;20296;-65
2022/03/12 04:25:42;;;;;;;14.23;9.93;;;;;;;;;;5062346;28;20204;-65
2022/03/12 04:28:09;;;;;;;11.95;10.15;;;;;;;;;;5062435;28;20419;-65
2022/03/12 04:30:37;;;;;;;14.02;9.52;;;;;;;;;;5062386;28;20197;-65
2022/03/12 04:33:03;;;;;;;12.60;9.82;;;;;;;;;;5062425;28;20212;-65
2022/03/12 04:35:30;;;;;;;11.65;9.57;;;;;;;;;;5062088;28;20212;-65
2022/03/12 04:37:56;;;;;;;14.85;9.68;;;;;;;;;;5061825;28;20204;-65
2022/03/12 04:40:25;;;;;;;17.05;9.27;;;;;;;;;;5062303;28;20197;-65
2022/03/12 04:42:52;;;;;;;13.60;8.57;;;;;;;;;;5062213;28;20197;-65
2022/03/12 04:45:19;;;;;;;15.38;9.32;;;;;;;;;;5062179;28;20201;-65
2022/03/12 04:47:46;;;;;;;13.57;9.63;;;;;;;;;;5061931;28;20415;-65
2022/03/12 04:50:13;;;;;;;10.27;8.43;;;;;;;;;;5061365;28;20287;-65
2022/03/12 04:52:41;;;;;;;12.02;8.70;;;;;;;;;;5062168;28;20212;-65
2022/03/12 04:55:09;;;;;;;12.07;9.15;;;;;;;;;;5062079;28;20554;-65
2022/03/12 04:57:37;;;;;;;10.82;8.30;;;;;;;;;;5061760;28;20204;-65
2022/03/12 05:00:04;;;;;;;15.45;9.55;;;;;;;;;;5062170;28;20204;-65
2022/03/12 05:02:30;;;;;;;11.05;9.05;;;;;;;;;;5062054;28;20211;-65
2022/03/12 05:04:56;;;;;;;18.63;9.45;;;;;;;;;;5061791;28;20199;-65
2022/03/12 05:07:25;;;;;;;11.77;9.25;;;;;;;;;;5061821;28;20197;-65
2022/03/12 05:09:51;;;;;;;11.90;9.25;;;;;;;;;;5061856;28;20197;-65
2022/03/12 05:12:18;;;;;;;11.10;9.00;;;;;;;;;;5062001;28;20386;-66
2022/03/12 05:14:46;;;;;;;17.33;8.60;;;;;;;;;;5061726;28;20213;-65
2022/03/12 05:17:13;;;;;;;10.88;8.75;;;;;;;;;;5061518;28;20318;-65
2022/03/12 05:19:39;;;;;;;13.73;8.77;;;;;;;;;;5062069;28;20272;-65
2022/03/12 05:22:07;;;;;;;12.35;9.82;;;;;;;;;;5061842;28;20197;-65
2022/03/12 05:24:34;;;;;;;14.13;9.07;;;;;;;;;;5061796;28;20211;-65
2022/03/12 05:27:00;;;;;;;12.80;8.63;;;;;;;;;;5061498;28;20201;-65
2022/03/12 05:29:26;;;;;;;13.70;9.68;;;;;;;;;;5061697;28;20197;-65
2022/03/12 05:31:54;;;;;;;12.50;9.65;;;;;;;;;;5061627;28;20398;-65
2022/03/12 05:34:22;;;;;;;13.38;9.32;;;;;;;;;;5061755;28;20221;-65
2022/03/12 05:36:49;;;;;;;12.32;8.43;;;;;;;;;;5061623;28;20197;-65
2022/03/12 05:39:16;;;;;;;12.27;9.02;;;;;;;;;;5061561;28;20382;-65
2022/03/12 05:41:44;;;;;;;12.55;9.63;;;;;;;;;;5061548;28;20227;-65
2022/03/12 05:44:13;;;;;;;13.60;9.27;;;;;;;;;;5061338;28;20189;-65
2022/03/12 05:46:40;;;;;;;12.57;10.13;;;;;;;;;;5061279;28;20206;-65
2022/03/12 05:49:08;;;;;;;13.20;9.32;;;;;;;;;;5061802;28;20503;-65
2022/03/12 05:51:36;;;;;;;17.98;11.20;;;;;;;;;;5061564;28;20547;-65
2022/03/12 05:54:02;;;;;;;23.80;16.52;;;;;;;;;;5061414;28;20217;-65
2022/03/12 05:56:28;;;;;;;39.85;24.33;;;;;;;;;;5061191;28;20197;-65
2022/03/12 05:58:55;;;;;;;37.63;23.30;;;;;;;;;;5061239;28;20201;-65
2022/03/12 06:01:21;;;;;;;33.28;21.42;;;;;;;;;;5061747;28;20429;-65
2022/03/12 06:03:47;;;;;;;19.75;13.85;;;;;;;;;;5065041;28;20493;-65
2022/03/12 06:06:15;;;;;;;16.10;11.43;;;;;;;;;;5064674;28;20230;-65
2022/03/12 06:08:41;;;;;;;14.55;10.35;;;;;;;;;;5064997;28;20243;-65
2022/03/12 06:11:08;;;;;;;14.88;10.25;;;;;;;;;;5064851;28;20415;-65
2022/03/12 06:13:34;;;;;;;13.70;10.10;;;;;;;;;;5064626;28;20205;-65
2022/03/12 06:16:02;;;;;;;11.60;9.00;;;;;;;;;;5064850;28;20497;-65
2022/03/12 06:18:30;;;;;;;11.07;9.45;;;;;;;;;;5065176;28;20205;-65
2022/03/12 06:20:56;;;;;;;14.32;9.57;;;;;;;;;;5064648;28;20243;-65
2022/03/12 06:23:23;;;;;;;12.88;9.10;;;;;;;;;;5064707;28;20209;-65
2022/03/12 06:25:51;;;;;;;11.27;9.35;;;;;;;;;;5064648;28;20205;-65
2022/03/12 06:28:17;;;;;;;13.93;9.25;;;;;;;;;;5064439;28;20272;-65
2022/03/12 06:30:44;;;;;;;14.32;9.07;;;;;;;;;;5064838;28;20235;-65
2022/03/12 06:33:10;;;;;;;11.88;8.65;;;;;;;;;;5064687;28;20197;-65
2022/03/12 06:35:36;;;;;;;12.27;9.10;;;;;;;;;;5064531;28;20222;-65
2022/03/12 06:38:02;;;;;;;11.63;8.60;;;;;;;;;;5064255;28;20223;-65
2022/03/12 06:40:30;;;;;;;13.43;8.73;;;;;;;;;;5064231;28;20223;-65
2022/03/12 06:42:59;;;;;;;14.95;10.05;;;;;;;;;;5064703;28;20197;-65
2022/03/12 06:45:25;;;;;;;13.38;7.68;;;;;;;;;;5064308;28;20515;-65
2022/03/12 06:47:52;;;;;;;13.02;8.63;;;;;;;;;;5063976;28;20197;-65
2022/03/12 06:50:19;;;;;;;8.52;7.45;;;;;;;;;;5064096;28;20511;-65
2022/03/12 06:52:48;;;;;;;9.65;8.18;;;;;;;;;;5064088;28;20529;-65
2022/03/12 06:55:14;;;;;;;9.23;7.75;;;;;;;;;;5063710;28;20217;-65
2022/03/12 06:57:42;;;;;;;12.52;8.48;;;;;;;;;;5063917;28;20267;-65
2022/03/12 07:00:12;;;;;;;12.35;8.13;;;;;;;;;;5064167;28;20197;-65
2022/03/12 07:02:39;;;;;;;11.48;7.95;;;;;;;;;;5063971;28;20394;-65
2022/03/12 07:05:06;;;;;;;11.90;8.23;;;;;;;;;;5063733;28;20213;-65
2022/03/12 07:07:32;;;;;;;13.32;7.78;;;;;;;;;;5063503;28;20205;-65
2022/03/12 07:09:58;;;;;;;8.85;7.80;;;;;;;;;;5063647;28;20250;-65
2022/03/12 07:12:24;;;;;;;11.75;7.72;;;;;;;;;;5063226;28;20235;-65
2022/03/12 07:14:52;;;;;;;11.30;8.15;;;;;;;;;;5063886;28;20255;-65
2022/03/12 07:17:19;;;;;;;12.52;9.02;;;;;;;;;;5063443;28;20243;-65
2022/03/12 07:19:45;;;;;;;13.13;8.30;;;;;;;;;;5063525;28;20197;-65
2022/03/12 07:22:11;;;;;;;17.25;9.57;;;;;;;;;;5063617;28;20197;-66
2022/03/12 07:24:37;;;;;;;16.55;11.88;;;;;;;;;;5063553;28;20213;-66
2022/03/12 07:27:04;;;;;;;15.88;11.45;;;;;;;;;;5063539;28;20486;-66
2022/03/12 07:29:32;;;;;;;14.35;9.15;;;;;;;;;;5063703;28;20206;-66
2022/03/12 07:31:59;;;;;;;11.18;8.35;;;;;;;;;;5063318;28;20243;-66
2022/03/12 07:34:26;;;;;;;12.63;7.68;;;;;;;;;;5063088;28;20288;-66
2022/03/12 07:36:53;;;;;;;12.55;7.75;;;;;;;;;;5062978;28;20513;-65
2022/03/12 07:39:20;;;;;;;16.73;8.32;;;;;;;;;;5063433;28;20243;-65
2022/03/12 07:41:46;;;;;;;12.52;7.95;;;;;;;;;;5063299;28;20197;-65
2022/03/12 07:44:12;;;;;;;12.10;9.23;;;;;;;;;;5063229;28;20243;-65
2022/03/12 07:46:39;;;;;;;11.07;8.32;;;;;;;;;;5062720;28;20223;-65
2022/03/12 07:49:06;;;;;;;11.48;7.88;;;;;;;;;;5063156;28;20213;-65
2022/03/12 07:51:35;;;;;;;11.35;7.95;;;;;;;;;;5062907;28;20332;-65
2022/03/12 07:54:06;;;;;;;10.55;8.07;;;;;;;;;;5063131;28;20388;-65
2022/03/12 07:56:34;;;;;;;13.90;8.77;;;;;;;;;;5062901;28;20387;-65
2022/03/12 07:59:00;;;;;;;11.82;9.27;;;;;;;;;;5062826;28;20204;-65
2022/03/12 08:01:26;;;;;;;11.75;8.55;;;;;;;;;;5062705;28;20205;-65
2022/03/12 08:03:53;;;;;;;11.88;8.90;;;;;;;;;;5062703;28;20501;-65
2022/03/12 08:06:20;;;;;;;14.23;8.57;;;;;;;;;;5062423;28;20240;-65
2022/03/12 08:08:47;;;;;;;46.40;27.73;;;;;;;;;;5062810;28;20197;-65
2022/03/12 08:11:29;;;;;;;19.83;14.65;;;;;;;;;;5062710;28;20264;-65
2022/03/12 08:14:00;;;;;;;9.77;8.10;;;;;;;;;;5062787;28;20204;-66
2022/03/12 08:16:28;;;;;;;13.60;8.20;;;;;;;;;;5062686;28;20268;-66
2022/03/12 08:18:54;;;;;;;12.32;8.68;;;;;;;;;;5062688;28;20464;-66
2022/03/12 08:21:22;;;;;;;10.65;8.25;;;;;;;;;;5062797;28;20496;-65
2022/03/12 08:23:49;;;;;;;13.25;8.77;;;;;;;;;;5062251;28;20508;-65
2022/03/12 08:26:16;;;;;;;10.73;8.48;;;;;;;;;;5062166;28;20227;-65
2022/03/12 08:28:43;;;;;;;16.17;9.07;;;;;;;;;;5062469;28;20197;-64
2022/03/12 08:31:09;;;;;;;13.10;8.65;;;;;;;;;;5062329;28;20203;-63
2022/03/12 08:33:37;;;;;;;12.45;8.82;;;;;;;;;;5062538;28;20252;-63
2022/03/12 08:36:04;;;;;;;10.73;9.02;;;;;;;;;;5062116;28;20480;-64
2022/03/12 08:38:32;;;;;;;13.48;8.63;;;;;;;;;;5062183;28;20199;-63
2022/03/12 08:40:59;;;;;;;15.23;9.27;;;;;;;;;;5062312;28;20388;-66
2022/03/12 08:43:25;;;;;;;10.35;8.63;;;;;;;;;;5062197;28;20397;-66
2022/03/12 08:45:51;;;;;;;12.32;9.35;;;;;;;;;;5062409;28;20200;-64
2022/03/12 08:48:18;;;;;;;14.70;9.15;;;;;;;;;;5061995;28;20209;-64
2022/03/12 08:50:44;;;;;;;10.43;8.68;;;;;;;;;;5062339;28;20197;-64
2022/03/12 08:53:10;;;;;;;22.38;8.77;;;;;;;;;;5061983;28;20197;-64
2022/03/12 08:55:38;;;;;;;17.50;9.93;;;;;;;;;;5061942;28;20221;-64
2022/03/12 08:58:05;;;;;;;16.73;9.18;;;;;;;;;;5061871;28;20444;-65
2022/03/12 09:00:31;;;;;;;13.05;8.98;;;;;;;;;;5062247;28;20381;-65
2022/03/12 09:02:58;;;;;;;11.25;8.95;;;;;;;;;;5062128;28;20197;-65
2022/03/12 09:05:25;;;;;;;13.05;9.52;;;;;;;;;;5062044;28;20213;-65
2022/03/12 09:07:52;;;;;;;14.02;10.20;;;;;;;;;;5061771;28;20232;-65
2022/03/12 09:10:19;;;;;;;14.15;9.52;;;;;;;;;;5062594;28;20201;-65
2022/03/12 09:12:47;;;;;;;14.00;9.25;;;;;;;;;;5062569;28;20447;-64
2022/03/12 09:15:14;;;;;;;15.05;9.70;;;;;;;;;;5062108;28;20228;-64
2022/03/12 09:17:41;;;;;;;13.27;9.57;;;;;;;;;;5061608;28;20204;-64
2022/03/12 09:20:08;;;;;;;20.60;9.65;;;;;;;;;;5061903;28;20197;-64
2022/03/12 09:22:34;;;;;;;18.90;9.93;;;;;;;;;;5061723;28;20201;-64
2022/03/12 09:25:01;;;;;;;15.82;9.73;;;;;;;;;;5061317;28;20208;-64
2022/03/12 09:27:28;;;;;;;16.55;10.50;;;;;;;;;;5061097;28;20261;-64
2022/03/12 09:29:55;;;;;;;16.38;10.10;;;;;;;;;;5061443;28;20197;-64
2022/03/12 09:32:22;;;;;;;12.07;8.82;;;;;;;;;;5061362;28;20201;-64
2022/03/12 09:34:48;;;;;;;17.20;9.68;;;;;;;;;;5061341;28;20228;-64
2022/03/12 09:37:15;;;;;;;12.73;9.32;;;;;;;;;;5064294;28;20501;-64
2022/03/12 09:39:41;;;;;;;16.70;10.02;;;;;;;;;;5065227;28;20552;-64
2022/03/12 09:42:09;;;;;;;17.70;10.27;;;;;;;;;;5065135;28;20201;-64
2022/03/12 09:44:35;;;;;;;13.27;10.35;;;;;;;;;;5065142;28;20212;-64
2022/03/12 09:47:03;;;;;;;15.25;10.48;;;;;;;;;;5064847;28;20427;-64
2022/03/12 09:49:29;;;;;;;16.17;11.02;;;;;;;;;;5065131;28;20201;-64
2022/03/12 09:51:57;;;;;;;13.55;10.73;;;;;;;;;;5065006;28;20197;-64
2022/03/12 09:54:24;;;;;;;14.43;11.00;;;;;;;;;;5064754;28;20423;-64
2022/03/12 09:56:50;;;;;;;17.23;11.38;;;;;;;;;;5064610;28;20224;-64
2022/03/12 09:59:16;;;;;;;15.18;11.20;;;;;;;;;;5065045;28;20204;-64
2022/03/12 10:01:43;;;;;;;19.25;12.32;;;;;;;;;;5064855;28;20319;-64
2022/03/12 10:04:10;;;;;;;14.90;11.57;;;;;;;;;;5064719;28;20204;-64
2022/03/12 10:06:37;;;;;;;16.63;11.80;;;;;;;;;;5064178;28;20217;-64
2022/03/12 10:09:04;;;;;;;16.73;11.95;;;;;;;;;;5064518;28;20519;-64
2022/03/12 10:11:31;;;;;;;19.45;12.85;;;;;;;;;;5064883;28;20496;-64
2022/03/12 10:13:57;;;;;;;21.63;13.52;;;;;;;;;;5064575;28;20201;-65
2022/03/12 10:16:25;;;;;;;22.20;12.77;;;;;;;;;;5064474;28;20235;-64
2022/03/12 10:18:51;;;;;;;21.88;13.43;;;;;;;;;;5064702;28;20197;-64
2022/03/12 10:21:19;;;;;;;19.92;13.98;;;;;;;;;;5064543;28;20197;-65
2022/03/12 10:23:45;;;;;;;18.77;13.10;;;;;;;;;;5064774;28;20259;-65
2022/03/12 10:26:11;;;;;;;21.17;13.60;;;;;;;;;;5064574;28;20193;-65
2022/03/12 10:28:38;;;;;;;19.63;13.65;;;;;;;;;;5064549;28;20508;-65
2022/03/12 10:31:05;;;;;;;21.73;13.77;;;;;;;;;;5064566;28;20427;-65
2022/03/12 10:33:31;;;;;;;19.95;13.75;;;;;;;;;;5064423;28;20197;-64
2022/03/12 10:36:10;;;;;;;18.88;13.55;;;;;;;;;;5064222;28;20231;-64
2022/03/12 10:38:39;;;;;;;19.67;12.90;;;;;;;;;;5064453;28;20200;-65
2022/03/12 10:41:06;;;;;;;19.38;14.02;;;;;;;;;;5064260;28;20197;-65
2022/03/12 10:43:34;;;;;;;19.55;13.50;;;;;;;;;;5064189;28;20211;-64
2022/03/12 10:46:01;;;;;;;18.70;13.32;;;;;;;;;;5063988;28;20496;-67
2022/03/12 10:48:29;;;;;;;20.50;15.15;;;;;;;;;;5063153;28;20296;-67
2022/03/12 10:50:56;;;;;;;23.60;14.57;;;;;;;;;;5064265;28;20204;-67
2022/03/12 10:53:22;;;;;;;18.10;12.90;;;;;;;;;;5064209;28;20242;-67
2022/03/12 10:55:50;;;;;;;19.05;13.43;;;;;;;;;;5064030;28;20244;-67
2022/03/12 10:58:20;;;;;;;25.42;17.17;;;;;;;;;;5063987;28;20197;-67
2022/03/12 11:00:48;;;;;;;17.67;12.73;;;;;;;;;;5063737;28;20497;-67
2022/03/12 11:03:16;;;;;;;18.67;14.27;;;;;;;;;;5063816;28;20201;-67
2022/03/12 11:05:43;;;;;;;18.42;13.20;;;;;;;;;;5063724;28;20213;-67
2022/03/12 11:08:15;;;;;;;19.45;13.13;;;;;;;;;;5063725;28;20197;-67
2022/03/12 11:10:43;;;;;;;21.88;15.18;;;;;;;;;;5063634;28;20197;-67
2022/03/12 11:13:23;;;;;;;19.10;14.13;;;;;;;;;;5063518;28;20427;-67
2022/03/12 11:15:49;;;;;;;20.35;13.48;;;;;;;;;;5063330;28;20217;-67
2022/03/12 11:18:15;;;;;;;19.45;12.77;;;;;;;;;;5063265;28;20204;-67
2022/03/12 11:20:42;;;;;;;17.55;12.00;;;;;;;;;;5063364;28;20221;-67
2022/03/12 11:23:08;;;;;;;16.20;13.10;;;;;;;;;;5063159;28;20205;-67
2022/03/12 11:25:36;;;;;;;15.77;12.80;;;;;;;;;;5062964;28;20508;-67
2022/03/12 11:28:16;;;;;;;17.63;12.73;;;;;;;;;;5062585;28;20228;-67
2022/03/12 11:30:43;;;;;;;17.77;13.02;;;;;;;;;;5063182;28;20204;-67
2022/03/12 11:33:10;;;;;;;17.33;12.82;;;;;;;;;;5062956;28;20209;-67
2022/03/12 11:35:37;;;;;;;16.88;12.65;;;;;;;;;;5062854;28;20221;-67
2022/03/12 11:38:11;;;;;;;16.55;12.20;;;;;;;;;;5062672;28;20197;-67
2022/03/12 11:40:40;;;;;;;15.05;10.32;;;;;;;;;;5062734;28;20445;-67
2022/03/12 11:43:19;;;;;;;11.75;9.27;;;;;;;;;;5062676;28;20205;-67
2022/03/12 11:45:47;;;;;;;11.60;8.95;;;;;;;;;;5063066;28;20215;-67
2022/03/12 11:48:13;;;;;;;10.55;8.68;;;;;;;;;;5062476;28;20232;-67
2022/03/12 11:50:39;;;;;;;8.80;8.00;;;;;;;;;;5063056;28;20192;-67
2022/03/12 11:53:06;;;;;;;9.23;7.32;;;;;;;;;;5062582;28;20201;-67
2022/03/12 11:55:32;;;;;;;10.32;8.50;;;;;;;;;;5062673;28;20243;-67
2022/03/12 11:57:59;;;;;;;8.23;7.43;;;;;;;;;;5062674;28;20371;-67
2022/03/12 12:00:28;;;;;;;8.95;7.65;;;;;;;;;;5062402;28;20197;-67
2022/03/12 12:02:56;;;;;;;8.80;7.65;;;;;;;;;;5062785;28;20197;-67
2022/03/12 12:05:25;;;;;;;8.52;7.50;;;;;;;;;;5062684;28;20222;-67
2022/03/12 12:07:52;;;;;;;7.28;6.68;;;;;;;;;;5062418;28;20197;-67
2022/03/12 12:10:19;;;;;;;9.07;6.93;;;;;;;;;;5062642;28;20264;-67
2022/03/12 12:12:49;;;;;;;12.10;8.40;;;;;;;;;;5062690;28;20200;-67
2022/03/12 12:15:17;;;;;;;9.75;8.45;;;;;;;;;;5062658;28;20527;-67
2022/03/12 12:17:44;;;;;;;13.23;8.48;;;;;;;;;;5062203;28;20279;-67
2022/03/12 12:20:13;;;;;;;10.43;8.65;;;;;;;;;;5062388;28;20196;-67
2022/03/12 12:22:39;;;;;;;12.13;8.50;;;;;;;;;;5062870;28;20201;-67
2022/03/12 12:25:06;;;;;;;10.70;8.60;;;;;;;;;;5062430;28;20428;-67
2022/03/12 12:27:50;;;;;;;8.68;7.63;;;;;;;;;;5062341;28;20197;-67
2022/03/12 12:30:25;;;;;;;10.90;7.88;;;;;;;;;;5062396;28;20524;-67
2022/03/12 12:32:52;;;;;;;9.88;8.35;;;;;;;;;;5062391;28;20370;-67
2022/03/12 12:35:21;;;;;;;9.32;8.18;;;;;;;;;;5062531;28;20197;-67
2022/03/12 12:37:52;;;;;;;9.35;7.60;;;;;;;;;;5062069;28;20220;-67
2022/03/12 12:40:23;;;;;;;8.68;7.78;;;;;;;;;;5062230;28;20197;-67
2022/03/12 12:42:50;;;;;;;11.30;8.07;;;;;;;;;;5062295;28;20488;-67
2022/03/12 12:45:17;;;;;;;10.10;8.60;;;;;;;;;;5062012;28;20246;-67
2022/03/12 12:47:43;;;;;;;11.75;8.77;;;;;;;;;;5061945;28;20211;-67
2022/03/12 12:50:18;;;;;;;12.27;8.73;;;;;;;;;;5062215;28;20235;-68
2022/03/12 12:53:08;;;;;;;8.32;7.38;;;;;;;;;;5062264;28;20196;-67
2022/03/12 12:55:35;;;;;;;9.55;7.72;;;;;;;;;;5062034;28;20196;-67
2022/03/12 12:58:01;;;;;;;9.02;8.10;;;;;;;;;;5062060;28;20356;-67
2022/03/12 13:00:38;;;;;;;11.32;8.40;;;;;;;;;;5062183;28;20192;-67
2022/03/12 13:03:15;;;;;;;8.93;7.93;;;;;;;;;;5062222;28;20204;-67
2022/03/12 13:05:41;;;;;;;8.20;7.28;;;;;;;;;;5061981;28;20221;-67
2022/03/12 13:08:09;;;;;;;6.90;6.40;;;;;;;;;;5061644;28;20197;-67
2022/03/12 13:10:36;;;;;;;11.80;7.43;;;;;;;;;;5062742;28;20201;-67
2022/03/12 13:13:09;;;;;;;49.65;11.10;;;;;;;;;;5066186;28;20203;-67
2022/03/12 13:15:39;;;;;;;9.57;7.60;;;;;;;;;;5066038;28;20434;-67
2022/03/12 13:18:35;;;;;;;8.75;7.88;;;;;;;;;;5065649;28;20235;-67
2022/03/12 13:21:01;;;;;;;10.63;7.95;;;;;;;;;;5065727;28;20212;-67
2022/03/12 13:23:30;;;;;;;15.07;8.95;;;;;;;;;;5065798;28;20201;-67
2022/03/12 13:25:58;;;;;;;9.77;8.77;;;;;;;;;;5065923;28;20236;-67
2022/03/12 13:28:35;;;;;;;9.63;8.30;;;;;;;;;;5065787;28;20264;-67
2022/03/12 13:31:03;;;;;;;10.10;8.85;;;;;;;;;;5065450;28;20410;-67
2022/03/12 13:33:29;;;;;;;10.45;8.35;;;;;;;;;;5065470;28;20204;-67
2022/03/12 13:35:56;;;;;;;9.63;8.63;;;;;;;;;;5065620;28;20204;-67
2022/03/12 13:38:22;;;;;;;14.70;8.75;;;;;;;;;;5065576;28;20369;-67
2022/03/12 13:40:50;;;;;;;22.67;9.50;;;;;;;;;;5065454;28;20205;-67
2022/03/12 13:43:16;;;;;;;16.20;9.27;;;;;;;;;;5065442;28;20197;-67
2022/03/12 13:45:43;;;;;;;11.73;8.70;;;;;;;;;;5065787;28;20211;-67
2022/03/12 13:48:09;;;;;;;10.48;8.48;;;;;;;;;;5065346;28;20193;-67
2022/03/12 13:50:36;;;;;;;12.88;9.00;;;;;;;;;;5065465;28;20223;-67
2022/03/12 13:53:04;;;;;;;43.92;9.93;;;;;;;;;;5065226;28;20197;-67
2022/03/12 13:55:30;;;;;;;11.80;8.70;;;;;;;;;;5065091;28;20229;-67
2022/03/12 13:57:59;;;;;;;9.73;8.40;;;;;;;;;;5064909;28;20243;-67
2022/03/12 14:00:26;;;;;;;10.63;9.20;;;;;;;;;;5065329;28;20519;-67
2022/03/12 14:02:53;;;;;;;12.13;9.15;;;;;;;;;;5065209;28;20441;-67
2022/03/12 14:05:20;;;;;;;11.65;9.68;;;;;;;;;;5064991;28;20217;-67
2022/03/12 14:07:47;;;;;;;10.18;8.10;;;;;;;;;;5064877;28;20193;-67
2022/03/12 14:10:15;;;;;;;10.32;9.23;;;;;;;;;;5065036;28;20220;-67
2022/03/12 14:12:41;;;;;;;11.23;8.38;;;;;;;;;;5064867;28;20508;-67
2022/03/12 14:15:11;;;;;;;10.25;8.27;;;;;;;;;;5065048;28;20508;-67
2022/03/12 14:17:37;;;;;;;11.82;8.80;;;;;;;;;;5064399;28;20225;-67
2022/03/12 14:20:04;;;;;;;11.35;8.77;;;;;;;;;;5064583;28;20243;-67
2022/03/12 14:22:31;;;;;;;9.40;8.40;;;;;;;;;;5063536;28;20250;-67
2022/03/12 14:25:02;;;;;;;13.95;10.02;;;;;;;;;;5064674;28;20382;-67
2022/03/12 14:27:29;;;;;;;12.60;9.88;;;;;;;;;;5064628;28;20193;-67
2022/03/12 14:29:58;;;;;;;12.95;9.27;;;;;;;;;;5064767;28;20373;-67